sensor_id;sensor_type;location;lat;lon;timestamp;temperature;humidity
78289;DHT22;67539;48.752;12.922;2023-07-20T00:00:00;19.50;92.30
78289;DHT22;67539;48.752;12.922;2023-07-20T00:02:38;19.50;92.60
78289;DHT22;67539;48.752;12.922;2023-07-20T00:05:07;19.50;92.90
78289;DHT22;67539;48.752;12.922;2023-07-20T00:07:35;19.50;93.00
78289;DHT22;67539;48.752;12.922;2023-07-20T00:10:06;19.50;93.20
78289;DHT22;67539;48.752;12.922;2023-07-20T00:12:34;19.60;93.90
78289;DHT22;67539;48.752;12.922;2023-07-20T00:15:03;19.60;94.30
78289;DHT22;67539;48.752;12.922;2023-07-20T00:17:31;19.60;94.80
78289;DHT22;67539;48.752;12.922;2023-07-20T00:19:59;19.50;95.20
78289;DHT22;67539;48.752;12.922;2023-07-20T00:22:28;19.50;95.60
78289;DHT22;67539;48.752;12.922;2023-07-20T00:24:56;19.50;96.30
78289;DHT22;67539;48.752;12.922;2023-07-20T00:27:25;19.40;96.50
78289;DHT22;67539;48.752;12.922;2023-07-20T00:29:54;19.40;97.10
78289;DHT22;67539;48.752;12.922;2023-07-20T00:32:22;19.40;97.40
78289;DHT22;67539;48.752;12.922;2023-07-20T00:34:50;19.40;98.20
78289;DHT22;67539;48.752;12.922;2023-07-20T00:37:18;19.40;98.40
78289;DHT22;67539;48.752;12.922;2023-07-20T00:39:46;19.30;98.80
78289;DHT22;67539;48.752;12.922;2023-07-20T00:42:15;19.40;99.20
78289;DHT22;67539;48.752;12.922;2023-07-20T00:44:45;19.40;99.70
78289;DHT22;67539;48.752;12.922;2023-07-20T00:47:14;19.30;99.90
78289;DHT22;67539;48.752;12.922;2023-07-20T00:49:42;19.30;99.90
78289;DHT22;67539;48.752;12.922;2023-07-20T00:52:11;19.30;99.90
78289;DHT22;67539;48.752;12.922;2023-07-20T00:54:43;19.30;99.90
78289;DHT22;67539;48.752;12.922;2023-07-20T00:57:13;19.30;99.90
78289;DHT22;67539;48.752;12.922;2023-07-20T00:59:42;19.30;99.90
78289;DHT22;67539;48.752;12.922;2023-07-20T01:02:12;19.30;99.90
78289;DHT22;67539;48.752;12.922;2023-07-20T01:04:40;19.30;99.90
78289;DHT22;67539;48.752;12.922;2023-07-20T01:07:17;19.30;99.90
78289;DHT22;67539;48.752;12.922;2023-07-20T01:09:51;19.30;99.90
78289;DHT22;67539;48.752;12.922;2023-07-20T01:12:25;19.30;99.90
78289;DHT22;67539;48.752;12.922;2023-07-20T01:16:07;19.30;99.90
78289;DHT22;67539;48.752;12.922;2023-07-20T01:19:51;19.30;99.90
78289;DHT22;67539;48.752;12.922;2023-07-20T01:23:52;19.30;99.90
78289;DHT22;67539;48.752;12.922;2023-07-20T01:28:09;19.30;99.90
78289;DHT22;67539;48.752;12.922;2023-07-20T01:31:57;19.20;99.90
78289;DHT22;67539;48.752;12.922;2023-07-20T01:35:38;19.20;99.90
78289;DHT22;67539;48.752;12.922;2023-07-20T01:39:21;19.20;99.90
78289;DHT22;67539;48.752;12.922;2023-07-20T01:43:03;19.20;99.90
78289;DHT22;67539;48.752;12.922;2023-07-20T01:46:44;19.10;99.90
78289;DHT22;67539;48.752;12.922;2023-07-20T01:50:26;19.10;99.90
78289;DHT22;67539;48.752;12.922;2023-07-20T01:54:07;19.00;99.90
78289;DHT22;67539;48.752;12.922;2023-07-20T01:57:49;18.90;99.90
78289;DHT22;67539;48.752;12.922;2023-07-20T02:01:30;18.90;99.90
78289;DHT22;67539;48.752;12.922;2023-07-20T02:05:11;18.90;99.90
78289;DHT22;67539;48.752;12.922;2023-07-20T04:06:59;18.30;99.90
78289;DHT22;67539;48.752;12.922;2023-07-20T04:09:27;18.30;99.90
78289;DHT22;67539;48.752;12.922;2023-07-20T04:11:55;18.30;99.90
78289;DHT22;67539;48.752;12.922;2023-07-20T04:14:23;18.30;99.90
78289;DHT22;67539;48.752;12.922;2023-07-20T04:16:51;18.30;99.90
78289;DHT22;67539;48.752;12.922;2023-07-20T04:19:23;18.40;99.90
78289;DHT22;67539;48.752;12.922;2023-07-20T04:21:52;18.40;99.90
78289;DHT22;67539;48.752;12.922;2023-07-20T04:24:22;18.40;99.90
78289;DHT22;67539;48.752;12.922;2023-07-20T04:26:50;18.50;99.90
78289;DHT22;67539;48.752;12.922;2023-07-20T04:29:19;18.60;99.90
78289;DHT22;67539;48.752;12.922;2023-07-20T04:34:49;18.70;99.90
78289;DHT22;67539;48.752;12.922;2023-07-20T04:37:18;18.70;99.90
78289;DHT22;67539;48.752;12.922;2023-07-20T04:39:49;18.70;99.90
78289;DHT22;67539;48.752;12.922;2023-07-20T04:42:18;18.70;99.90
78289;DHT22;67539;48.752;12.922;2023-07-20T04:44:47;18.80;99.90
78289;DHT22;67539;48.752;12.922;2023-07-20T04:47:15;18.80;99.90
78289;DHT22;67539;48.752;12.922;2023-07-20T04:49:43;18.90;99.90
78289;DHT22;67539;48.752;12.922;2023-07-20T04:52:11;18.90;99.90
78289;DHT22;67539;48.752;12.922;2023-07-20T04:54:40;19.00;99.90
78289;DHT22;67539;48.752;12.922;2023-07-20T04:57:12;19.10;99.90
78289;DHT22;67539;48.752;12.922;2023-07-20T04:59:45;19.10;99.90
78289;DHT22;67539;48.752;12.922;2023-07-20T05:02:13;19.20;99.90
78289;DHT22;67539;48.752;12.922;2023-07-20T05:04:41;19.20;99.90
78289;DHT22;67539;48.752;12.922;2023-07-20T05:07:09;19.30;99.90
78289;DHT22;67539;48.752;12.922;2023-07-20T05:09:37;19.30;99.90
78289;DHT22;67539;48.752;12.922;2023-07-20T05:12:06;19.40;99.90
78289;DHT22;67539;48.752;12.922;2023-07-20T05:14:36;19.40;99.90
78289;DHT22;67539;48.752;12.922;2023-07-20T05:17:05;19.40;99.90
78289;DHT22;67539;48.752;12.922;2023-07-20T05:19:33;19.50;99.90
78289;DHT22;67539;48.752;12.922;2023-07-20T05:22:01;19.50;99.90
78289;DHT22;67539;48.752;12.922;2023-07-20T05:24:32;19.50;99.90
78289;DHT22;67539;48.752;12.922;2023-07-20T05:27:00;19.50;99.90
78289;DHT22;67539;48.752;12.922;2023-07-20T05:29:28;19.50;99.90
78289;DHT22;67539;48.752;12.922;2023-07-20T05:31:57;19.50;99.90
78289;DHT22;67539;48.752;12.922;2023-07-20T05:34:25;19.50;99.90
78289;DHT22;67539;48.752;12.922;2023-07-20T05:36:53;19.50;99.90
78289;DHT22;67539;48.752;12.922;2023-07-20T05:39:21;19.40;99.90
78289;DHT22;67539;48.752;12.922;2023-07-20T05:41:49;19.50;99.90
78289;DHT22;67539;48.752;12.922;2023-07-20T05:44:17;19.50;99.90
78289;DHT22;67539;48.752;12.922;2023-07-20T05:46:45;19.50;99.90
78289;DHT22;67539;48.752;12.922;2023-07-20T05:49:25;19.50;99.90
78289;DHT22;67539;48.752;12.922;2023-07-20T05:51:53;19.50;99.90
78289;DHT22;67539;48.752;12.922;2023-07-20T05:54:21;19.60;99.90
78289;DHT22;67539;48.752;12.922;2023-07-20T05:56:49;19.60;99.90
78289;DHT22;67539;48.752;12.922;2023-07-20T05:59:17;19.60;99.90
78289;DHT22;67539;48.752;12.922;2023-07-20T06:01:46;19.60;99.90
78289;DHT22;67539;48.752;12.922;2023-07-20T06:04:15;19.60;99.90
78289;DHT22;67539;48.752;12.922;2023-07-20T06:06:45;19.70;99.90
78289;DHT22;67539;48.752;12.922;2023-07-20T06:09:13;19.70;99.90
78289;DHT22;67539;48.752;12.922;2023-07-20T06:11:41;19.70;99.90
78289;DHT22;67539;48.752;12.922;2023-07-20T06:14:09;19.70;99.90
78289;DHT22;67539;48.752;12.922;2023-07-20T06:16:37;19.70;99.90
78289;DHT22;67539;48.752;12.922;2023-07-20T06:19:05;19.80;99.90
78289;DHT22;67539;48.752;12.922;2023-07-20T06:21:33;19.90;99.90
78289;DHT22;67539;48.752;12.922;2023-07-20T06:24:03;19.90;99.90
78289;DHT22;67539;48.752;12.922;2023-07-20T06:26:31;20.00;99.90
78289;DHT22;67539;48.752;12.922;2023-07-20T06:29:05;20.00;99.90
78289;DHT22;67539;48.752;12.922;2023-07-20T06:31:34;20.00;99.90
78289;DHT22;67539;48.752;12.922;2023-07-20T06:34:02;20.00;99.90
78289;DHT22;67539;48.752;12.922;2023-07-20T06:36:31;20.10;99.90
78289;DHT22;67539;48.752;12.922;2023-07-20T06:38:59;20.20;99.90
78289;DHT22;67539;48.752;12.922;2023-07-20T06:41:31;20.20;99.80
78289;DHT22;67539;48.752;12.922;2023-07-20T06:44:02;20.20;99.90
78289;DHT22;67539;48.752;12.922;2023-07-20T06:46:31;20.20;99.20
78289;DHT22;67539;48.752;12.922;2023-07-20T06:48:59;20.20;98.50
78289;DHT22;67539;48.752;12.922;2023-07-20T06:51:30;20.20;98.30
78289;DHT22;67539;48.752;12.922;2023-07-20T06:53:58;20.20;98.40
78289;DHT22;67539;48.752;12.922;2023-07-20T06:56:26;20.20;98.30
78289;DHT22;67539;48.752;12.922;2023-07-20T06:58:59;20.20;98.10
78289;DHT22;67539;48.752;12.922;2023-07-20T07:01:27;20.20;98.50
78289;DHT22;67539;48.752;12.922;2023-07-20T07:03:55;20.30;98.30
78289;DHT22;67539;48.752;12.922;2023-07-20T07:06:23;20.30;98.10
78289;DHT22;67539;48.752;12.922;2023-07-20T07:08:52;20.40;97.90
78289;DHT22;67539;48.752;12.922;2023-07-20T07:11:20;20.40;98.10
78289;DHT22;67539;48.752;12.922;2023-07-20T07:13:49;20.40;97.90
78289;DHT22;67539;48.752;12.922;2023-07-20T07:16:19;20.30;98.00
78289;DHT22;67539;48.752;12.922;2023-07-20T07:18:49;20.40;97.90
78289;DHT22;67539;48.752;12.922;2023-07-20T07:21:18;20.30;97.50
78289;DHT22;67539;48.752;12.922;2023-07-20T07:23:46;20.30;97.80
78289;DHT22;67539;48.752;12.922;2023-07-20T07:26:14;20.30;97.90
78289;DHT22;67539;48.752;12.922;2023-07-20T07:28:42;20.40;97.70
78289;DHT22;67539;48.752;12.922;2023-07-20T07:31:10;20.30;97.90
78289;DHT22;67539;48.752;12.922;2023-07-20T07:33:39;20.30;98.00
78289;DHT22;67539;48.752;12.922;2023-07-20T07:36:07;20.40;97.70
78289;DHT22;67539;48.752;12.922;2023-07-20T07:38:35;20.40;97.60
78289;DHT22;67539;48.752;12.922;2023-07-20T07:41:24;20.50;97.60
78289;DHT22;67539;48.752;12.922;2023-07-20T07:43:52;20.60;98.00
78289;DHT22;67539;48.752;12.922;2023-07-20T07:46:20;20.60;97.60
78289;DHT22;67539;48.752;12.922;2023-07-20T07:48:50;20.70;97.50
78289;DHT22;67539;48.752;12.922;2023-07-20T07:51:18;20.70;97.40
78289;DHT22;67539;48.752;12.922;2023-07-20T07:53:46;20.80;97.30
78289;DHT22;67539;48.752;12.922;2023-07-20T07:56:16;20.80;96.90
78289;DHT22;67539;48.752;12.922;2023-07-20T07:58:48;20.90;96.70
78289;DHT22;67539;48.752;12.922;2023-07-20T08:01:18;20.90;97.10
78289;DHT22;67539;48.752;12.922;2023-07-20T08:03:47;20.90;96.70
78289;DHT22;67539;48.752;12.922;2023-07-20T08:06:16;20.80;96.90
78289;DHT22;67539;48.752;12.922;2023-07-20T08:08:44;20.90;97.00
78289;DHT22;67539;48.752;12.922;2023-07-20T08:11:12;21.00;96.60
78289;DHT22;67539;48.752;12.922;2023-07-20T08:13:41;21.10;96.10
78289;DHT22;67539;48.752;12.922;2023-07-20T08:16:09;21.10;96.20
78289;DHT22;67539;48.752;12.922;2023-07-20T08:18:37;21.30;96.20
78289;DHT22;67539;48.752;12.922;2023-07-20T08:21:06;21.50;96.00
78289;DHT22;67539;48.752;12.922;2023-07-20T08:23:35;21.50;95.10
78289;DHT22;67539;48.752;12.922;2023-07-20T08:26:03;21.60;95.20
78289;DHT22;67539;48.752;12.922;2023-07-20T08:28:32;21.70;94.80
78289;DHT22;67539;48.752;12.922;2023-07-20T08:31:00;21.80;94.40
78289;DHT22;67539;48.752;12.922;2023-07-20T08:33:28;21.80;94.10
78289;DHT22;67539;48.752;12.922;2023-07-20T08:36:00;21.90;94.30
78289;DHT22;67539;48.752;12.922;2023-07-20T08:38:30;21.90;93.70
78289;DHT22;67539;48.752;12.922;2023-07-20T08:40:59;21.80;94.70
78289;DHT22;67539;48.752;12.922;2023-07-20T08:43:28;21.70;94.40
78289;DHT22;67539;48.752;12.922;2023-07-20T08:45:58;21.70;94.00
78289;DHT22;67539;48.752;12.922;2023-07-20T08:48:27;21.60;93.30
78289;DHT22;67539;48.752;12.922;2023-07-20T08:50:55;21.60;93.20
78289;DHT22;67539;48.752;12.922;2023-07-20T08:53:24;21.60;93.10
78289;DHT22;67539;48.752;12.922;2023-07-20T08:55:52;21.70;93.50
78289;DHT22;67539;48.752;12.922;2023-07-20T08:58:23;21.90;92.90
78289;DHT22;67539;48.752;12.922;2023-07-20T09:00:53;22.00;92.90
78289;DHT22;67539;48.752;12.922;2023-07-20T09:03:23;22.00;93.20
78289;DHT22;67539;48.752;12.922;2023-07-20T09:05:51;22.10;92.40
78289;DHT22;67539;48.752;12.922;2023-07-20T09:08:19;22.20;92.40
78289;DHT22;67539;48.752;12.922;2023-07-20T09:10:47;22.30;91.00
78289;DHT22;67539;48.752;12.922;2023-07-20T09:13:16;22.20;91.40
78289;DHT22;67539;48.752;12.922;2023-07-20T09:15:53;22.30;90.80
78289;DHT22;67539;48.752;12.922;2023-07-20T09:18:25;22.30;90.50
78289;DHT22;67539;48.752;12.922;2023-07-20T09:20:53;22.30;90.70
78289;DHT22;67539;48.752;12.922;2023-07-20T09:23:30;22.20;90.70
78289;DHT22;67539;48.752;12.922;2023-07-20T09:26:00;22.20;90.60
78289;DHT22;67539;48.752;12.922;2023-07-20T09:28:28;22.30;91.10
78289;DHT22;67539;48.752;12.922;2023-07-20T09:30:58;22.50;90.70
78289;DHT22;67539;48.752;12.922;2023-07-20T09:33:26;22.50;90.60
78289;DHT22;67539;48.752;12.922;2023-07-20T09:36:02;22.60;90.50
78289;DHT22;67539;48.752;12.922;2023-07-20T09:38:50;22.60;89.30
78289;DHT22;67539;48.752;12.922;2023-07-20T09:41:21;22.50;88.10
78289;DHT22;67539;48.752;12.922;2023-07-20T09:43:53;22.30;87.00
78289;DHT22;67539;48.752;12.922;2023-07-20T09:46:23;22.30;86.20
78289;DHT22;67539;48.752;12.922;2023-07-20T09:48:55;22.40;85.60
78289;DHT22;67539;48.752;12.922;2023-07-20T09:51:26;22.40;86.00
78289;DHT22;67539;48.752;12.922;2023-07-20T09:53:55;22.50;85.80
78289;DHT22;67539;48.752;12.922;2023-07-20T09:56:25;22.60;86.00
78289;DHT22;67539;48.752;12.922;2023-07-20T09:58:55;22.80;84.50
78289;DHT22;67539;48.752;12.922;2023-07-20T10:01:24;23.00;81.90
78289;DHT22;67539;48.752;12.922;2023-07-20T10:03:58;23.20;79.40
78289;DHT22;67539;48.752;12.922;2023-07-20T10:06:30;23.30;80.60
78289;DHT22;67539;48.752;12.922;2023-07-20T10:09:02;23.40;79.60
78289;DHT22;67539;48.752;12.922;2023-07-20T10:11:32;23.50;78.70
78289;DHT22;67539;48.752;12.922;2023-07-20T10:14:04;23.60;77.80
78289;DHT22;67539;48.752;12.922;2023-07-20T10:16:35;23.40;79.00
78289;DHT22;67539;48.752;12.922;2023-07-20T10:19:07;23.40;78.80
78289;DHT22;67539;48.752;12.922;2023-07-20T10:21:43;23.30;78.90
78289;DHT22;67539;48.752;12.922;2023-07-20T10:24:21;23.20;79.90
78289;DHT22;67539;48.752;12.922;2023-07-20T10:26:51;23.10;77.90
78289;DHT22;67539;48.752;12.922;2023-07-20T10:29:19;23.00;77.80
78289;DHT22;67539;48.752;12.922;2023-07-20T10:31:50;23.00;77.10
78289;DHT22;67539;48.752;12.922;2023-07-20T10:34:22;23.10;78.20
78289;DHT22;67539;48.752;12.922;2023-07-20T10:36:50;23.20;78.20
78289;DHT22;67539;48.752;12.922;2023-07-20T10:39:25;23.20;78.30
78289;DHT22;67539;48.752;12.922;2023-07-20T10:42:02;23.10;78.30
78289;DHT22;67539;48.752;12.922;2023-07-20T10:44:31;23.00;78.50
78289;DHT22;67539;48.752;12.922;2023-07-20T10:47:01;23.00;79.10
78289;DHT22;67539;48.752;12.922;2023-07-20T10:49:33;22.90;79.70
78289;DHT22;67539;48.752;12.922;2023-07-20T10:52:05;23.00;78.00
78289;DHT22;67539;48.752;12.922;2023-07-20T10:54:46;22.90;78.30
78289;DHT22;67539;48.752;12.922;2023-07-20T10:57:28;23.00;79.70
78289;DHT22;67539;48.752;12.922;2023-07-20T11:00:10;23.00;77.80
78289;DHT22;67539;48.752;12.922;2023-07-20T11:02:45;23.10;78.20
78289;DHT22;67539;48.752;12.922;2023-07-20T11:05:33;23.10;76.90
78289;DHT22;67539;48.752;12.922;2023-07-20T11:08:04;23.20;78.10
78289;DHT22;67539;48.752;12.922;2023-07-20T11:10:33;23.40;78.30
78289;DHT22;67539;48.752;12.922;2023-07-20T11:13:17;23.60;75.50
78289;DHT22;67539;48.752;12.922;2023-07-20T11:15:46;23.60;75.70
78289;DHT22;67539;48.752;12.922;2023-07-20T11:18:16;23.60;75.60
78289;DHT22;67539;48.752;12.922;2023-07-20T11:20:50;23.60;75.00
78289;DHT22;67539;48.752;12.922;2023-07-20T11:23:20;23.60;74.00
78289;DHT22;67539;48.752;12.922;2023-07-20T11:25:48;23.60;73.10
78289;DHT22;67539;48.752;12.922;2023-07-20T11:28:17;23.60;73.10
78289;DHT22;67539;48.752;12.922;2023-07-20T11:30:45;23.70;73.90
78289;DHT22;67539;48.752;12.922;2023-07-20T11:33:19;23.90;72.80
78289;DHT22;67539;48.752;12.922;2023-07-20T11:35:49;24.00;73.90
78289;DHT22;67539;48.752;12.922;2023-07-20T11:38:19;24.20;69.10
78289;DHT22;67539;48.752;12.922;2023-07-20T11:40:47;24.30;68.70
78289;DHT22;67539;48.752;12.922;2023-07-20T11:43:15;24.40;66.40
78289;DHT22;67539;48.752;12.922;2023-07-20T11:45:46;24.30;67.20
78289;DHT22;67539;48.752;12.922;2023-07-20T11:48:15;24.50;67.10
78289;DHT22;67539;48.752;12.922;2023-07-20T11:50:45;24.60;66.30
78289;DHT22;67539;48.752;12.922;2023-07-20T11:53:14;24.80;64.80
78289;DHT22;67539;48.752;12.922;2023-07-20T11:55:42;24.80;63.60
78289;DHT22;67539;48.752;12.922;2023-07-20T11:58:10;24.60;62.80
78289;DHT22;67539;48.752;12.922;2023-07-20T12:00:39;24.50;64.40
78289;DHT22;67539;48.752;12.922;2023-07-20T12:03:07;24.60;65.10
78289;DHT22;67539;48.752;12.922;2023-07-20T12:05:38;24.60;63.70
78289;DHT22;67539;48.752;12.922;2023-07-20T12:08:27;24.60;64.60
78289;DHT22;67539;48.752;12.922;2023-07-20T12:10:55;24.60;63.60
78289;DHT22;67539;48.752;12.922;2023-07-20T12:13:26;24.40;63.40
78289;DHT22;67539;48.752;12.922;2023-07-20T12:16:08;24.40;63.60
78289;DHT22;67539;48.752;12.922;2023-07-20T12:18:37;24.30;63.50
78289;DHT22;67539;48.752;12.922;2023-07-20T12:21:06;24.30;62.50
78289;DHT22;67539;48.752;12.922;2023-07-20T12:23:40;24.30;63.00
78289;DHT22;67539;48.752;12.922;2023-07-20T12:26:09;24.20;62.60
78289;DHT22;67539;48.752;12.922;2023-07-20T12:28:41;24.20;62.90
78289;DHT22;67539;48.752;12.922;2023-07-20T12:31:10;24.20;62.40
78289;DHT22;67539;48.752;12.922;2023-07-20T12:33:40;24.10;63.40
78289;DHT22;67539;48.752;12.922;2023-07-20T12:36:09;24.20;64.20
78289;DHT22;67539;48.752;12.922;2023-07-20T12:38:39;24.30;63.80
78289;DHT22;67539;48.752;12.922;2023-07-20T12:41:10;24.50;62.30
78289;DHT22;67539;48.752;12.922;2023-07-20T12:43:40;24.60;61.60
78289;DHT22;67539;48.752;12.922;2023-07-20T12:46:09;24.80;61.40
78289;DHT22;67539;48.752;12.922;2023-07-20T12:48:38;24.80;61.00
78289;DHT22;67539;48.752;12.922;2023-07-20T12:51:08;24.70;61.40
78289;DHT22;67539;48.752;12.922;2023-07-20T12:53:36;24.80;60.80
78289;DHT22;67539;48.752;12.922;2023-07-20T12:56:06;25.00;59.70
78289;DHT22;67539;48.752;12.922;2023-07-20T12:58:37;25.10;59.90
78289;DHT22;67539;48.752;12.922;2023-07-20T13:01:05;25.10;59.70
78289;DHT22;67539;48.752;12.922;2023-07-20T13:03:33;25.30;59.70
78289;DHT22;67539;48.752;12.922;2023-07-20T13:06:21;25.50;58.00
78289;DHT22;67539;48.752;12.922;2023-07-20T13:08:53;25.50;58.60
78289;DHT22;67539;48.752;12.922;2023-07-20T13:11:24;25.70;58.90
78289;DHT22;67539;48.752;12.922;2023-07-20T13:13:53;25.80;57.10
78289;DHT22;67539;48.752;12.922;2023-07-20T13:16:21;25.80;56.30
78289;DHT22;67539;48.752;12.922;2023-07-20T13:18:50;25.90;56.20
78289;DHT22;67539;48.752;12.922;2023-07-20T13:21:18;26.00;58.10
78289;DHT22;67539;48.752;12.922;2023-07-20T13:23:50;25.90;56.00
78289;DHT22;67539;48.752;12.922;2023-07-20T13:26:18;25.80;56.50
78289;DHT22;67539;48.752;12.922;2023-07-20T13:28:48;25.80;56.20
78289;DHT22;67539;48.752;12.922;2023-07-20T13:31:16;25.80;55.80
78289;DHT22;67539;48.752;12.922;2023-07-20T13:33:44;25.90;55.00
78289;DHT22;67539;48.752;12.922;2023-07-20T13:36:23;26.10;53.40
78289;DHT22;67539;48.752;12.922;2023-07-20T13:38:52;26.10;52.90
78289;DHT22;67539;48.752;12.922;2023-07-20T13:41:22;26.10;53.10
78289;DHT22;67539;48.752;12.922;2023-07-20T13:43:52;26.20;52.90
78289;DHT22;67539;48.752;12.922;2023-07-20T13:46:24;26.30;54.80
78289;DHT22;67539;48.752;12.922;2023-07-20T13:48:55;26.30;53.10
78289;DHT22;67539;48.752;12.922;2023-07-20T13:51:24;26.50;53.30
78289;DHT22;67539;48.752;12.922;2023-07-20T13:53:54;26.70;53.50
78289;DHT22;67539;48.752;12.922;2023-07-20T13:56:22;26.80;53.10
78289;DHT22;67539;48.752;12.922;2023-07-20T13:58:51;27.00;51.70
78289;DHT22;67539;48.752;12.922;2023-07-20T14:01:21;27.40;52.10
78289;DHT22;67539;48.752;12.922;2023-07-20T14:03:53;28.10;52.00
78289;DHT22;67539;48.752;12.922;2023-07-20T14:06:21;28.90;49.70
78289;DHT22;67539;48.752;12.922;2023-07-20T14:08:52;28.60;49.30
78289;DHT22;67539;48.752;12.922;2023-07-20T14:11:21;27.60;48.90
78289;DHT22;67539;48.752;12.922;2023-07-20T14:13:53;27.40;50.70
78289;DHT22;67539;48.752;12.922;2023-07-20T14:16:24;28.00;48.20
78289;DHT22;67539;48.752;12.922;2023-07-20T14:18:53;28.70;48.70
78289;DHT22;67539;48.752;12.922;2023-07-20T14:21:22;28.60;47.30
78289;DHT22;67539;48.752;12.922;2023-07-20T14:23:52;28.30;46.40
78289;DHT22;67539;48.752;12.922;2023-07-20T14:26:20;28.50;46.30
78289;DHT22;67539;48.752;12.922;2023-07-20T14:28:49;29.00;46.70
78289;DHT22;67539;48.752;12.922;2023-07-20T14:31:19;30.10;45.10
78289;DHT22;67539;48.752;12.922;2023-07-20T14:33:47;31.10;43.70
78289;DHT22;67539;48.752;12.922;2023-07-20T14:36:16;31.20;42.80
78289;DHT22;67539;48.752;12.922;2023-07-20T14:38:45;31.70;43.10
78289;DHT22;67539;48.752;12.922;2023-07-20T14:41:13;31.90;41.90
78289;DHT22;67539;48.752;12.922;2023-07-20T14:43:41;31.90;40.80
78289;DHT22;67539;48.752;12.922;2023-07-20T14:46:09;31.10;40.60
78289;DHT22;67539;48.752;12.922;2023-07-20T14:48:38;30.60;41.10
78289;DHT22;67539;48.752;12.922;2023-07-20T14:51:06;30.30;42.50
78289;DHT22;67539;48.752;12.922;2023-07-20T14:53:34;30.70;41.80
78289;DHT22;67539;48.752;12.922;2023-07-20T14:56:03;31.30;41.60
78289;DHT22;67539;48.752;12.922;2023-07-20T14:58:31;32.10;41.40
78289;DHT22;67539;48.752;12.922;2023-07-20T15:01:02;32.10;40.00
78289;DHT22;67539;48.752;12.922;2023-07-20T15:03:31;30.90;40.40
78289;DHT22;67539;48.752;12.922;2023-07-20T15:06:01;29.80;41.30
78289;DHT22;67539;48.752;12.922;2023-07-20T15:08:29;28.90;42.70
78289;DHT22;67539;48.752;12.922;2023-07-20T15:10:57;28.80;42.70
78289;DHT22;67539;48.752;12.922;2023-07-20T15:13:26;28.90;42.20
78289;DHT22;67539;48.752;12.922;2023-07-20T15:15:54;29.30;42.70
78289;DHT22;67539;48.752;12.922;2023-07-20T15:18:22;30.50;41.20
78289;DHT22;67539;48.752;12.922;2023-07-20T15:21:11;31.90;40.30
78289;DHT22;67539;48.752;12.922;2023-07-20T15:23:39;33.00;39.80
78289;DHT22;67539;48.752;12.922;2023-07-20T15:26:07;32.10;39.60
78289;DHT22;67539;48.752;12.922;2023-07-20T15:28:35;32.50;39.60
78289;DHT22;67539;48.752;12.922;2023-07-20T15:31:04;32.70;39.50
78289;DHT22;67539;48.752;12.922;2023-07-20T15:33:33;32.20;39.40
78289;DHT22;67539;48.752;12.922;2023-07-20T15:36:01;32.70;39.30
78289;DHT22;67539;48.752;12.922;2023-07-20T15:38:32;32.20;38.60
78289;DHT22;67539;48.752;12.922;2023-07-20T15:41:00;32.90;38.20
78289;DHT22;67539;48.752;12.922;2023-07-20T15:43:28;33.00;38.10
78289;DHT22;67539;48.752;12.922;2023-07-20T15:46:02;33.30;38.40
78289;DHT22;67539;48.752;12.922;2023-07-20T15:48:34;33.50;38.20
78289;DHT22;67539;48.752;12.922;2023-07-20T15:51:02;33.80;37.60
78289;DHT22;67539;48.752;12.922;2023-07-20T15:53:32;34.30;37.90
78289;DHT22;67539;48.752;12.922;2023-07-20T15:56:00;34.50;36.30
78289;DHT22;67539;48.752;12.922;2023-07-20T15:58:28;34.30;36.40
78289;DHT22;67539;48.752;12.922;2023-07-20T16:00:56;34.10;37.30
78289;DHT22;67539;48.752;12.922;2023-07-20T16:03:24;34.00;37.60
78289;DHT22;67539;48.752;12.922;2023-07-20T16:06:03;33.60;37.60
78289;DHT22;67539;48.752;12.922;2023-07-20T16:08:33;32.90;37.30
78289;DHT22;67539;48.752;12.922;2023-07-20T16:11:01;32.50;37.00
78289;DHT22;67539;48.752;12.922;2023-07-20T16:13:30;32.90;37.80
78289;DHT22;67539;48.752;12.922;2023-07-20T16:15:58;33.40;37.40
78289;DHT22;67539;48.752;12.922;2023-07-20T16:18:26;33.60;36.90
78289;DHT22;67539;48.752;12.922;2023-07-20T16:20:55;33.30;37.50
78289;DHT22;67539;48.752;12.922;2023-07-20T16:23:23;33.10;37.00
78289;DHT22;67539;48.752;12.922;2023-07-20T16:25:52;32.80;37.90
78289;DHT22;67539;48.752;12.922;2023-07-20T16:28:21;32.20;37.60
78289;DHT22;67539;48.752;12.922;2023-07-20T16:30:49;31.50;38.10
78289;DHT22;67539;48.752;12.922;2023-07-20T16:33:17;31.80;38.10
78289;DHT22;67539;48.752;12.922;2023-07-20T16:35:45;32.50;38.00
78289;DHT22;67539;48.752;12.922;2023-07-20T16:38:15;32.30;37.60
78289;DHT22;67539;48.752;12.922;2023-07-20T16:40:45;32.20;37.70
78289;DHT22;67539;48.752;12.922;2023-07-20T16:43:17;32.50;37.90
78289;DHT22;67539;48.752;12.922;2023-07-20T16:46:06;32.10;37.90
78289;DHT22;67539;48.752;12.922;2023-07-20T16:48:39;32.30;37.70
78289;DHT22;67539;48.752;12.922;2023-07-20T16:51:11;32.30;37.80
78289;DHT22;67539;48.752;12.922;2023-07-20T16:53:39;32.10;38.30
78289;DHT22;67539;48.752;12.922;2023-07-20T16:56:07;31.90;38.40
78289;DHT22;67539;48.752;12.922;2023-07-20T16:58:36;31.70;38.30
78289;DHT22;67539;48.752;12.922;2023-07-20T17:01:04;31.60;39.10
78289;DHT22;67539;48.752;12.922;2023-07-20T17:03:33;31.40;38.20
78289;DHT22;67539;48.752;12.922;2023-07-20T17:06:05;31.30;38.70
78289;DHT22;67539;48.752;12.922;2023-07-20T17:08:34;30.90;39.40
78289;DHT22;67539;48.752;12.922;2023-07-20T17:11:02;30.70;39.50
78289;DHT22;67539;48.752;12.922;2023-07-20T17:13:31;30.50;39.90
78289;DHT22;67539;48.752;12.922;2023-07-20T17:16:02;30.20;39.30
78289;DHT22;67539;48.752;12.922;2023-07-20T17:18:31;30.50;39.80
78289;DHT22;67539;48.752;12.922;2023-07-20T17:21:00;31.20;39.20
78289;DHT22;67539;48.752;12.922;2023-07-20T17:23:28;31.10;38.40
78289;DHT22;67539;48.752;12.922;2023-07-20T17:25:59;30.90;39.50
78289;DHT22;67539;48.752;12.922;2023-07-20T17:28:30;31.30;38.60
78289;DHT22;67539;48.752;12.922;2023-07-20T17:31:03;30.80;38.30
78289;DHT22;67539;48.752;12.922;2023-07-20T17:33:32;30.30;39.20
78289;DHT22;67539;48.752;12.922;2023-07-20T17:36:00;30.30;39.50
78289;DHT22;67539;48.752;12.922;2023-07-20T17:38:31;30.80;38.80
78289;DHT22;67539;48.752;12.922;2023-07-20T17:41:02;30.60;38.90
78289;DHT22;67539;48.752;12.922;2023-07-20T17:43:31;30.20;39.40
78289;DHT22;67539;48.752;12.922;2023-07-20T17:45:59;29.80;38.90
78289;DHT22;67539;48.752;12.922;2023-07-20T17:48:32;29.80;39.10
78289;DHT22;67539;48.752;12.922;2023-07-20T17:51:01;29.50;39.70